Time;durP1;ratioP1;P1;durP2;ratioP2;P2;SDS_P1;SDS_P2;PMS_P1;PMS_P2;Temp;Humidity;BMP_temperature;BMP_pressure;BME280_temperature;BME280_humidity;BME280_pressure;Samples;Min_cycle;Max_cycle;Signal;HPM_P1;HPM_P2
2023/10/05 00:02:08;;;;;;;6.35;1.38;;;;;;;14.20;100.00;100863.19;5013599;28;20060;-86
2023/10/05 00:04:41;;;;;;;4.30;1.30;;;;;;;14.20;100.00;100864.03;5010769;28;20041;-86
2023/10/05 00:07:17;;;;;;;5.40;1.10;;;;;;;14.22;100.00;100861.22;5038291;28;20132;-86
2023/10/05 00:09:43;;;;;;;8.25;1.50;;;;;;;14.15;100.00;100858.34;5013603;28;20079;-86
2023/10/05 00:12:18;;;;;;;9.38;1.58;;;;;;;14.15;100.00;100866.31;5024111;28;20033;-86
2023/10/05 00:14:48;;;;;;;8.05;1.33;;;;;;;14.15;100.00;100868.97;5013178;28;20124;-87
2023/10/05 00:17:19;;;;;;;7.97;1.73;;;;;;;14.17;100.00;100861.69;4996843;28;20128;-92
2023/10/05 00:19:44;;;;;;;3.45;1.40;;;;;;;14.12;100.00;100861.31;5015120;28;20121;-88
2023/10/05 00:22:11;;;;;;;6.15;1.38;;;;;;;14.11;100.00;100857.00;4996689;28;20467;-90
2023/10/05 00:24:37;;;;;;;7.82;1.70;;;;;;;14.12;100.00;100859.50;5027210;28;20112;-91
2023/10/05 00:27:13;;;;;;;5.00;1.15;;;;;;;14.17;100.00;100864.34;5015319;28;20462;-87
2023/10/05 00:29:45;;;;;;;4.78;1.38;;;;;;;14.17;100.00;100863.50;5046992;28;20033;-85
2023/10/05 00:32:32;;;;;;;9.68;1.48;;;;;;;14.16;100.00;100853.88;5045927;28;20033;-90
2023/10/05 00:35:16;;;;;;;6.63;1.13;;;;;;;14.14;100.00;100854.03;5029792;28;20493;-91
2023/10/05 00:37:48;;;;;;;5.88;1.25;;;;;;;14.16;100.00;100859.19;5045278;28;20032;-87
2023/10/05 00:40:34;;;;;;;5.03;1.10;;;;;;;14.12;100.00;100854.19;5027310;28;20488;-86
2023/10/05 00:43:18;;;;;;;8.23;1.38;;;;;;;14.17;100.00;100853.72;5011605;28;20099;-86
2023/10/05 00:45:56;;;;;;;8.20;1.80;;;;;;;14.17;100.00;100848.41;5032365;28;20544;-87
2023/10/05 00:48:54;;;;;;;8.87;1.77;;;;;;;14.14;100.00;100849.53;5026699;28;20116;-90
2023/10/05 00:51:26;;;;;;;11.35;2.60;;;;;;;14.07;100.00;100840.53;5031888;28;20041;-90
2023/10/05 00:53:53;;;;;;;4.82;1.30;;;;;;;14.09;100.00;100835.06;5030366;28;20154;-92
2023/10/05 00:56:23;;;;;;;6.35;1.27;;;;;;;14.07;100.00;100832.56;5031638;28;20036;-86
2023/10/05 00:58:54;;;;;;;7.93;1.50;;;;;;;14.05;100.00;100839.03;5034143;28;20057;-87
2023/10/05 01:01:27;;;;;;;6.40;2.10;;;;;;;14.07;100.00;100839.69;5008296;28;20032;-87
2023/10/05 01:14:53;;;;;;;4.35;1.23;;;;;;;14.09;100.00;100827.06;5026848;28;20044;-87
2023/10/05 01:17:25;;;;;;;9.18;1.20;;;;;;;14.03;100.00;100825.88;5034463;28;20478;-92
2023/10/05 01:19:58;;;;;;;5.40;1.50;;;;;;;14.02;100.00;100835.69;5031978;28;20053;-90
2023/10/05 01:22:32;;;;;;;7.60;1.48;;;;;;;14.01;100.00;100844.63;5006882;28;20036;-87
2023/10/05 01:24:59;;;;;;;7.10;1.17;;;;;;;14.03;100.00;100841.81;5043527;28;20033;-86
2023/10/05 01:27:32;;;;;;;9.27;1.45;;;;;;;14.01;100.00;100834.00;5043297;28;20102;-86
2023/10/05 01:29:58;;;;;;;7.70;1.45;;;;;;;14.04;100.00;100835.53;5011381;28;20037;-87
2023/10/05 01:32:25;;;;;;;9.40;1.85;;;;;;;14.05;100.00;100839.03;5045584;28;20597;-87
2023/10/05 01:34:51;;;;;;;5.68;1.48;;;;;;;14.02;100.00;100841.00;5025823;28;20065;-86
2023/10/05 01:37:30;;;;;;;5.65;0.98;;;;;;;14.03;100.00;100839.16;5030789;28;20044;-87
2023/10/05 01:39:59;;;;;;;5.97;1.50;;;;;;;13.99;100.00;100841.31;5035789;28;20124;-87
2023/10/05 01:42:25;;;;;;;9.27;1.42;;;;;;;13.98;100.00;100836.97;5043261;28;20036;-86
2023/10/05 01:44:51;;;;;;;6.72;1.17;;;;;;;14.00;100.00;100834.16;5011950;28;20091;-86
2023/10/05 01:47:18;;;;;;;4.53;1.60;;;;;;;14.01;100.00;100843.81;5047014;28;20108;-87
2023/10/05 01:49:45;;;;;;;8.57;1.50;;;;;;;13.98;100.00;100836.97;5012230;28;20131;-87
2023/10/05 01:52:17;;;;;;;4.65;1.30;;;;;;;14.01;100.00;100838.50;5015176;28;20060;-92
2023/10/05 01:54:43;;;;;;;4.93;1.30;;;;;;;13.97;100.00;100837.97;5051143;28;20044;-92
2023/10/05 01:57:12;;;;;;;6.22;1.40;;;;;;;13.98;100.00;100838.81;5046040;28;20033;-91
2023/10/05 01:59:40;;;;;;;8.40;1.65;;;;;;;13.98;100.00;100839.63;5024597;28;20381;-92
2023/10/05 02:02:13;;;;;;;5.90;1.23;;;;;;;14.02;100.00;100848.13;5026141;28;20095;-87
2023/10/05 02:04:49;;;;;;;8.85;1.20;;;;;;;13.96;100.00;100838.13;5044979;28;20028;-87
2023/10/05 02:07:15;;;;;;;8.10;1.58;;;;;;;13.96;100.00;100830.16;5028925;28;20385;-92
2023/10/05 02:09:41;;;;;;;9.20;1.60;;;;;;;13.95;100.00;100825.84;5013342;28;20120;-92
2023/10/05 02:12:07;;;;;;;7.60;1.42;;;;;;;13.94;100.00;100832.97;5033185;28;20120;-87
2023/10/05 02:14:36;;;;;;;7.50;1.45;;;;;;;13.96;100.00;100830.16;5026753;28;20036;-86
2023/10/05 02:17:03;;;;;;;8.93;1.40;;;;;;;13.91;100.00;100825.31;5024315;28;20025;-87
2023/10/05 02:19:30;;;;;;;9.75;1.70;;;;;;;13.89;100.00;100824.63;5011619;28;20076;-87
2023/10/05 02:21:58;;;;;;;6.68;1.20;;;;;;;13.88;100.00;100815.00;5032487;28;20030;-87
2023/10/05 02:24:25;;;;;;;7.72;1.38;;;;;;;13.86;100.00;100819.63;5031162;28;20035;-87
2023/10/05 02:27:12;;;;;;;10.15;1.25;;;;;;;13.84;100.00;100817.13;5022503;28;20509;-92
2023/10/05 02:29:45;;;;;;;9.55;1.42;;;;;;;13.82;100.00;100819.13;5014835;28;20057;-90
2023/10/05 02:32:14;;;;;;;8.85;1.38;;;;;;;13.79;100.00;100816.78;5027810;28;20053;-87
2023/10/05 02:37:10;;;;;;;8.73;1.65;;;;;;;13.73;100.00;100801.44;5002193;28;20034;-87
2023/10/05 02:39:40;;;;;;;9.63;1.33;;;;;;;13.70;100.00;100799.94;5003983;28;20038;-86
2023/10/05 02:42:12;;;;;;;10.73;1.60;;;;;;;13.69;100.00;100798.28;5019856;28;20099;-90
2023/10/05 02:44:38;;;;;;;7.57;1.35;;;;;;;13.63;100.00;100780.31;5023938;28;20087;-90
2023/10/05 02:47:13;;;;;;;6.20;1.17;;;;;;;13.61;100.00;100792.91;5022103;28;20036;-86
2023/10/05 02:49:43;;;;;;;7.38;1.30;;;;;;;13.58;100.00;100783.44;5001335;28;20707;-87
2023/10/05 02:52:16;;;;;;;5.18;1.02;;;;;;;13.55;100.00;100785.56;5019162;28;20033;-87
2023/10/05 02:54:47;;;;;;;6.68;1.20;;;;;;;13.50;100.00;100778.91;4990370;28;20045;-87
2023/10/05 02:57:16;;;;;;;6.32;1.25;;;;;;;13.48;100.00;100772.88;4986939;28;20040;-87
2023/10/05 02:59:46;;;;;;;6.20;1.05;;;;;;;13.51;100.00;100771.75;5009541;28;20103;-87
2023/10/05 03:02:16;;;;;;;3.38;0.88;;;;;;;13.46;100.00;100777.50;5009710;28;20037;-87
2023/10/05 03:04:59;;;;;;;7.00;1.50;;;;;;;13.47;100.00;100771.19;5004542;28;20029;-87
2023/10/05 03:07:27;;;;;;;6.00;1.10;;;;;;;13.42;100.00;100760.22;4993076;28;20029;-91
2023/10/05 03:09:59;;;;;;;7.65;1.02;;;;;;;13.42;100.00;100754.06;5009995;28;20041;-90
2023/10/05 03:12:26;;;;;;;5.55;0.85;;;;;;;13.40;100.00;100748.94;5022075;28;20041;-87
2023/10/05 03:14:56;;;;;;;11.32;1.42;;;;;;;13.38;100.00;100757.03;4999505;28;20489;-87
2023/10/05 03:17:26;;;;;;;5.93;1.20;;;;;;;13.39;100.00;100757.88;4990777;28;20042;-87
2023/10/05 03:19:52;;;;;;;7.28;1.20;;;;;;;13.41;100.00;100753.25;5009821;28;20040;-87
2023/10/05 03:22:23;;;;;;;6.43;1.20;;;;;;;13.44;100.00;100760.06;5022953;28;21149;-87
2023/10/05 03:24:50;;;;;;;9.93;1.30;;;;;;;13.42;100.00;100757.56;5010072;28;20469;-87
2023/10/05 03:27:17;;;;;;;7.88;1.27;;;;;;;13.43;100.00;100756.56;4998675;28;20524;-87
2023/10/05 03:29:46;;;;;;;9.05;1.08;;;;;;;13.42;100.00;100759.38;5018907;28;20084;-87
2023/10/05 03:32:14;;;;;;;7.32;1.50;;;;;;;13.40;100.00;100759.53;5021774;28;20029;-87
2023/10/05 03:34:46;;;;;;;4.40;1.38;;;;;;;13.43;100.00;100772.50;5008359;28;20039;-88
2023/10/05 03:37:15;;;;;;;10.57;1.77;;;;;;;13.38;100.00;100774.78;5036208;28;20376;-90
2023/10/05 03:39:51;;;;;;;11.30;1.75;;;;;;;13.39;100.00;100773.81;5018628;28;20047;-91
2023/10/05 03:42:17;;;;;;;7.85;1.50;;;;;;;13.39;100.00;100777.28;5039481;28;20427;-87
2023/10/05 03:44:43;;;;;;;6.32;1.08;;;;;;;13.40;100.00;100772.81;5031506;28;20033;-87
2023/10/05 03:47:11;;;;;;;12.20;1.63;;;;;;;13.40;100.00;100776.31;5032436;28;20037;-87
2023/10/05 03:49:37;;;;;;;11.30;1.38;;;;;;;13.41;100.00;100777.13;5028389;28;20043;-87
2023/10/05 03:52:06;;;;;;;7.57;1.45;;;;;;;13.40;100.00;100773.66;5028763;28;20028;-87
2023/10/05 03:54:38;;;;;;;14.02;1.98;;;;;;;13.38;100.00;100775.63;5015809;28;20039;-88
2023/10/05 03:57:10;;;;;;;11.40;1.63;;;;;;;13.39;100.00;100771.16;5047043;28;20040;-87
2023/10/05 03:59:37;;;;;;;7.32;1.38;;;;;;;13.37;100.00;100781.09;5012115;28;20499;-87
2023/10/05 04:02:07;;;;;;;8.52;1.85;;;;;;;13.36;100.00;100771.47;5042867;28;20044;-87
2023/10/05 04:04:37;;;;;;;10.45;1.55;;;;;;;13.33;100.00;100767.28;5033995;28;20029;-87
2023/10/05 04:07:03;;;;;;;8.02;2.10;;;;;;;13.33;100.00;100761.16;5031295;28;20040;-86
2023/10/05 04:09:35;;;;;;;10.10;1.98;;;;;;;13.31;100.00;100758.66;5027338;28;20041;-88
2023/10/05 04:12:04;;;;;;;12.13;1.52;;;;;;;13.26;100.00;100747.66;5030384;28;20873;-87
2023/10/05 04:14:29;;;;;;;13.50;1.63;;;;;;;13.25;100.00;100757.44;5013975;28;20037;-87
2023/10/05 04:16:58;;;;;;;8.07;1.35;;;;;;;13.24;100.00;100755.78;5043470;28;20040;-91
2023/10/05 04:19:24;;;;;;;9.90;1.85;;;;;;;13.22;100.00;100749.78;5033054;28;20025;-92
2023/10/05 04:21:52;;;;;;;8.90;1.63;;;;;;;13.23;100.00;100742.69;5027373;28;20576;-86
2023/10/05 04:24:18;;;;;;;9.00;1.70;;;;;;;13.22;100.00;100749.78;5027877;28;20408;-87
2023/10/05 04:26:47;;;;;;;9.70;1.42;;;;;;;13.23;100.00;100748.81;5005396;28;20041;-87
2023/10/05 04:29:14;;;;;;;12.05;1.55;;;;;;;13.22;100.00;100730.41;5004038;28;20042;-87
2023/10/05 04:31:41;;;;;;;10.00;1.60;;;;;;;13.22;100.00;100725.09;5014498;28;20045;-87
2023/10/05 04:34:18;;;;;;;6.75;1.65;;;;;;;13.17;100.00;100714.09;5006337;28;20022;-87
2023/10/05 04:36:53;;;;;;;10.07;1.92;;;;;;;13.20;100.00;100711.97;4996164;28;20025;-87
2023/10/05 04:39:27;;;;;;;10.52;1.45;;;;;;;13.15;100.00;100709.75;5022770;28;20513;-86
2023/10/05 04:41:55;;;;;;;8.07;1.50;;;;;;;13.15;100.00;100703.63;5010465;28;20043;-86
2023/10/05 04:44:21;;;;;;;9.95;1.25;;;;;;;13.16;100.00;100713.25;5026823;28;20044;-87
2023/10/05 04:46:49;;;;;;;11.40;1.45;;;;;;;13.12;100.00;100709.25;5030448;28;20038;-85
2023/10/05 04:49:16;;;;;;;6.35;1.45;;;;;;;13.15;100.00;100709.75;5022359;28;20567;-87
2023/10/05 04:51:43;;;;;;;7.38;1.27;;;;;;;13.17;100.00;100719.41;5011545;28;20037;-87
2023/10/05 04:54:11;;;;;;;7.82;1.67;;;;;;;13.19;100.00;100712.09;5013625;28;20056;-87
2023/10/05 05:04:38;;;;;;;6.30;1.42;;;;;;;13.22;100.00;100706.50;5008004;28;20172;-87
2023/10/05 05:07:09;;;;;;;10.98;1.95;;;;;;;13.20;100.00;100703.16;4994111;28;20041;-86
2023/10/05 05:09:40;;;;;;;5.55;1.10;;;;;;;13.22;100.00;100699.34;5004132;28;20034;-86
2023/10/05 05:12:16;;;;;;;5.40;1.20;;;;;;;13.20;100.00;100697.84;5007635;28;20030;-86
2023/10/05 05:14:45;;;;;;;7.30;1.55;;;;;;;13.18;100.00;100698.00;5024046;28;20037;-85
2023/10/05 05:17:14;;;;;;;8.45;1.25;;;;;;;13.19;100.00;100699.66;5005162;28;20323;-87
2023/10/05 05:19:40;;;;;;;6.43;1.10;;;;;;;13.16;100.00;100699.97;5003090;28;20553;-86
2023/10/05 05:22:07;;;;;;;10.18;1.45;;;;;;;13.17;100.00;100691.03;4998342;28;20172;-87
2023/10/05 05:24:33;;;;;;;3.85;1.10;;;;;;;13.17;100.00;100698.16;5025607;28;20039;-86
2023/10/05 05:29:45;;;;;;;8.02;1.30;;;;;;;13.13;100.00;100708.25;5011822;28;20505;-87
2023/10/05 05:32:11;;;;;;;9.20;1.13;;;;;;;13.14;100.00;100720.53;5025586;28;20030;-87
2023/10/05 05:34:37;;;;;;;10.15;1.98;;;;;;;13.15;100.00;100732.81;5022369;28;20041;-86
2023/10/05 05:37:04;;;;;;;6.97;1.52;;;;;;;13.16;100.00;100721.22;5024529;28;20051;-89
2023/10/05 05:39:38;;;;;;;11.88;1.05;;;;;;;13.15;100.00;100693.84;5030153;28;20113;-91
2023/10/05 05:42:13;;;;;;;2.60;0.70;;;;;;;13.13;100.00;100676.41;4995162;28;20092;-87
2023/10/05 05:44:40;;;;;;;8.07;1.55;;;;;;;13.09;100.00;100652.00;5005107;28;20045;-86
2023/10/05 05:47:10;;;;;;;9.75;1.20;;;;;;;13.08;100.00;100650.34;5006482;28;20148;-86
2023/10/05 05:49:40;;;;;;;4.97;1.20;;;;;;;13.09;100.00;100667.09;4987504;28;20064;-86
2023/10/05 05:52:10;;;;;;;7.50;1.30;;;;;;;13.05;100.00;100661.25;5023212;28;20033;-87
2023/10/05 05:54:36;;;;;;;10.02;1.85;;;;;;;13.02;100.00;100649.16;5003849;28;20498;-86
2023/10/05 05:57:08;;;;;;;14.40;1.80;;;;;;;13.02;100.00;100649.16;5025421;28;20116;-86
2023/10/05 05:59:41;;;;;;;8.90;1.52;;;;;;;13.05;100.00;100644.50;5000372;28;20038;-86
2023/10/05 06:02:08;;;;;;;7.32;1.33;;;;;;;13.03;100.00;100669.38;5009381;28;20049;-87
2023/10/05 06:04:35;;;;;;;9.00;2.35;;;;;;;13.05;100.00;100673.69;4995303;28;20417;-87
2023/10/05 06:07:11;;;;;;;7.55;2.03;;;;;;;13.06;100.00;100664.75;5007693;28;20548;-86
2023/10/05 06:09:43;;;;;;;5.25;1.10;;;;;;;13.06;100.00;100670.06;4991047;28;20045;-86
2023/10/05 06:12:12;;;;;;;10.60;1.80;;;;;;;13.11;100.00;100673.06;5023194;28;20034;-86
2023/10/05 06:14:44;;;;;;;6.22;1.17;;;;;;;13.11;100.00;100670.41;5007825;28;20041;-86
2023/10/05 06:17:10;;;;;;;8.55;1.40;;;;;;;13.06;100.00;100659.44;5022336;28;20034;-86
2023/10/05 06:19:37;;;;;;;9.45;1.98;;;;;;;13.07;100.00;100671.72;4991847;28;20026;-86
2023/10/05 06:22:05;;;;;;;8.13;1.33;;;;;;;13.07;100.00;100655.81;5023424;28;20068;-86
2023/10/05 06:24:31;;;;;;;7.82;1.40;;;;;;;13.05;100.00;100653.31;5024880;28;20030;-87
2023/10/05 06:26:58;;;;;;;8.38;1.25;;;;;;;13.07;100.00;100648.69;5010504;28;20588;-86
2023/10/05 06:29:24;;;;;;;6.93;1.40;;;;;;;13.05;100.00;100645.34;5010086;28;20559;-86
2023/10/05 06:31:50;;;;;;;6.38;1.23;;;;;;;13.04;100.00;100646.34;5021196;28;20037;-87
2023/10/05 06:34:16;;;;;;;8.20;1.20;;;;;;;13.03;100.00;100634.03;5019131;28;20033;-86
2023/10/05 06:36:42;;;;;;;8.10;1.50;;;;;;;13.05;100.00;100653.31;5009824;28;20041;-86
2023/10/05 06:39:14;;;;;;;3.45;1.25;;;;;;;13.08;100.00;100652.16;5022848;28;20052;-86
2023/10/05 06:41:41;;;;;;;7.53;1.50;;;;;;;13.12;100.00;100645.56;5006489;28;20637;-87
2023/10/05 06:44:10;;;;;;;6.38;1.15;;;;;;;13.11;100.00;100647.38;4991764;28;20061;-86
2023/10/05 06:46:42;;;;;;;13.73;1.98;;;;;;;13.17;100.00;100645.91;5023669;28;20040;-85
2023/10/05 06:49:09;;;;;;;6.88;2.00;;;;;;;13.17;100.00;100650.41;5005004;28;20117;-86
2023/10/05 06:51:35;;;;;;;6.10;1.27;;;;;;;13.14;100.00;100619.69;5023817;28;20036;-87
2023/10/05 06:54:01;;;;;;;5.00;1.40;;;;;;;13.14;100.00;100632.94;5000619;28;20037;-87
2023/10/05 06:56:27;;;;;;;6.20;1.38;;;;;;;13.19;100.00;100630.66;4999706;28;20116;-86
2023/10/05 06:58:54;;;;;;;6.55;1.45;;;;;;;13.19;100.00;100612.09;5005809;28;20582;-86
2023/10/05 07:01:22;;;;;;;6.82;1.50;;;;;;;13.17;100.00;100606.09;5005154;28;20068;-86
2023/10/05 07:03:55;;;;;;;9.63;1.90;;;;;;;13.18;100.00;100623.69;4985483;28;20061;-86
2023/10/05 07:06:22;;;;;;;10.10;2.25;;;;;;;13.18;100.00;100618.41;4989539;28;20021;-86
2023/10/05 07:08:52;;;;;;;8.73;1.90;;;;;;;13.19;100.00;100617.41;5021643;28;20037;-87
2023/10/05 07:11:19;;;;;;;11.38;1.50;;;;;;;13.20;100.00;100613.78;5008743;28;20034;-86
2023/10/05 07:13:46;;;;;;;6.30;1.58;;;;;;;13.18;100.00;100614.91;5021887;28;20072;-86
2023/10/05 07:16:12;;;;;;;4.85;1.23;;;;;;;13.15;100.00;100622.19;5023654;28;20061;-86
2023/10/05 07:18:39;;;;;;;5.70;1.33;;;;;;;13.09;100.00;100612.19;5008919;28;20050;-85
2023/10/05 07:21:08;;;;;;;5.97;1.33;;;;;;;13.12;100.00;100619.84;5027914;28;20036;-86
2023/10/05 07:23:37;;;;;;;9.95;1.55;;;;;;;13.09;100.00;100616.69;5021604;28;20029;-89
2023/10/05 07:26:05;;;;;;;9.95;1.30;;;;;;;13.09;100.00;100617.50;5009130;28;20025;-88
2023/10/05 07:28:33;;;;;;;6.70;1.70;;;;;;;13.09;100.00;100622.00;5043115;28;20036;-86
2023/10/05 07:30:59;;;;;;;7.25;1.58;;;;;;;13.06;100.00;100622.31;5038031;28;20028;-86
2023/10/05 07:33:26;;;;;;;8.25;1.15;;;;;;;13.07;100.00;100618.66;5034947;28;20184;-86
2023/10/05 07:35:53;;;;;;;8.20;1.42;;;;;;;13.05;100.00;100620.63;5050531;28;20032;-86
2023/10/05 07:38:20;;;;;;;7.60;1.35;;;;;;;13.09;100.00;100614.03;5030287;28;20195;-85
2023/10/05 07:40:47;;;;;;;6.13;1.45;;;;;;;13.08;100.00;100615.84;5049771;28;20028;-86
2023/10/05 07:43:13;;;;;;;6.75;1.98;;;;;;;13.08;100.00;100623.81;5030516;28;20465;-86
2023/10/05 07:45:39;;;;;;;5.80;1.75;;;;;;;13.09;100.00;100601.56;5048082;28;20119;-86
2023/10/05 07:48:06;;;;;;;5.07;1.17;;;;;;;13.09;100.00;100612.19;5066481;28;20103;-86
2023/10/05 07:50:32;;;;;;;7.32;1.35;;;;;;;13.12;100.00;100626.97;5041730;28;20043;-86
2023/10/05 07:52:58;;;;;;;7.30;1.55;;;;;;;13.16;100.00;100609.75;5048799;28;20119;-86
2023/10/05 07:55:25;;;;;;;6.13;1.30;;;;;;;13.21;100.00;100606.63;5019413;28;20036;-85
2023/10/05 07:57:51;;;;;;;7.72;1.45;;;;;;;13.22;100.00;100614.41;5017924;28;20052;-88
2023/10/05 08:00:20;;;;;;;8.35;1.42;;;;;;;13.25;100.00;100608.78;5028474;28;20032;-88
2023/10/05 08:02:46;;;;;;;4.60;1.15;;;;;;;13.28;100.00;100610.31;5023182;28;20029;-86
2023/10/05 08:05:12;;;;;;;5.97;1.33;;;;;;;13.27;100.00;100609.47;5041373;28;20480;-86
2023/10/05 08:07:39;;;;;;;5.72;1.10;;;;;;;13.30;100.00;100607.50;5039006;28;20571;-86
2023/10/05 08:10:06;;;;;;;7.68;1.20;;;;;;;13.32;100.00;100606.34;5046046;28;20091;-86
2023/10/05 08:12:32;;;;;;;7.57;1.35;;;;;;;13.32;100.00;100597.53;5040891;28;20043;-86
2023/10/05 08:14:58;;;;;;;5.85;1.23;;;;;;;13.36;100.00;100586.44;5025949;28;20108;-85
2023/10/05 08:17:24;;;;;;;6.75;1.23;;;;;;;13.36;100.00;100583.78;5010018;28;20104;-85
2023/10/05 08:19:49;;;;;;;4.15;0.90;;;;;;;13.41;100.00;100583.31;5054817;28;20120;-85
2023/10/05 08:22:18;;;;;;;9.43;1.40;;;;;;;13.44;100.00;100587.50;5027604;28;20029;-86
2023/10/05 08:24:44;;;;;;;3.28;1.05;;;;;;;13.46;100.00;100585.47;5022494;28;20041;-85
2023/10/05 08:27:16;;;;;;;2.92;0.90;;;;;;;13.51;100.00;100585.88;5030949;28;20432;-85
2023/10/05 08:29:44;;;;;;;4.15;0.80;;;;;;;13.56;100.00;100583.59;5010619;28;20041;-86
2023/10/05 08:32:13;;;;;;;4.47;0.90;;;;;;;13.61;100.00;100588.41;5025841;28;20041;-85
2023/10/05 08:34:44;;;;;;;3.00;0.80;;;;;;;13.70;100.00;100587.44;5017101;28;20039;-86
2023/10/05 08:37:12;;;;;;;2.65;0.70;;;;;;;13.69;100.00;100591.09;5017874;28;20053;-85
2023/10/05 08:39:38;;;;;;;4.00;0.60;;;;;;;13.77;100.00;100577.00;5016133;28;20029;-85
2023/10/05 08:42:07;;;;;;;5.20;1.15;;;;;;;13.84;100.00;100556.75;5008681;28;20079;-85
2023/10/05 08:44:38;;;;;;;4.80;0.77;;;;;;;13.92;100.00;100555.13;5018285;28;20478;-86
2023/10/05 08:47:10;;;;;;;3.10;0.77;;;;;;;13.94;100.00;100542.47;5012036;28;20553;-90
2023/10/05 08:49:37;;;;;;;4.50;0.70;;;;;;;13.95;100.00;100558.25;5020346;28;20490;-89
2023/10/05 08:52:13;;;;;;;3.90;0.82;;;;;;;14.01;100.00;100570.06;4997487;28;20124;-86
2023/10/05 08:54:40;;;;;;;5.38;1.02;;;;;;;13.99;100.00;100570.25;5011620;28;20048;-85
2023/10/05 08:57:11;;;;;;;2.22;0.60;;;;;;;14.00;100.00;100563.91;4994789;28;20037;-85
2023/10/05 08:59:39;;;;;;;1.67;0.50;;;;;;;14.03;100.00;100568.06;5029637;28;20068;-85
2023/10/05 09:02:08;;;;;;;2.88;0.65;;;;;;;14.05;100.00;100565.28;5015961;28;20282;-86
2023/10/05 09:04:43;;;;;;;4.57;1.05;;;;;;;14.08;100.00;100546.34;5030691;28;20048;-86
2023/10/05 09:07:29;;;;;;;3.45;0.50;;;;;;;14.19;100.00;100558.47;5042662;28;20030;-85
2023/10/05 09:09:55;;;;;;;5.72;1.05;;;;;;;14.17;100.00;100544.50;5022732;28;20412;-85
2023/10/05 09:12:46;;;;;;;3.45;0.77;;;;;;;14.23;100.00;100549.16;5025736;28;20049;-85
2023/10/05 09:17:56;;;;;;;2.28;0.60;;;;;;;14.26;100.00;100547.00;5012874;28;20045;-88
2023/10/05 09:20:24;;;;;;;2.65;0.57;;;;;;;14.29;100.00;100551.16;5026555;28;20805;-89
2023/10/05 09:22:53;;;;;;;6.82;0.77;;;;;;;14.27;100.00;100543.34;5025506;28;20038;-86
2023/10/05 09:25:27;;;;;;;4.40;0.98;;;;;;;14.26;100.00;100548.81;4998906;28;20029;-86
2023/10/05 09:27:56;;;;;;;3.08;0.80;;;;;;;14.27;100.00;100540.69;5013667;28;20092;-86
2023/10/05 09:30:22;;;;;;;7.28;1.50;;;;;;;14.29;100.00;100532.53;5027377;28;20025;-86
2023/10/05 09:32:48;;;;;;;5.85;0.90;;;;;;;14.30;100.00;100541.34;5028781;28;20116;-86
2023/10/05 09:35:27;;;;;;;5.75;1.17;;;;;;;14.38;100.00;100536.03;5027543;28;20030;-85
2023/10/05 09:38:01;;;;;;;8.13;1.83;;;;;;;14.32;100.00;100532.19;5001623;28;20037;-84
2023/10/05 09:40:28;;;;;;;5.63;0.98;;;;;;;14.37;100.00;100529.88;4992801;28;20394;-85
2023/10/05 09:42:55;;;;;;;6.30;0.70;;;;;;;14.38;100.00;100525.41;5040296;28;20087;-85
2023/10/05 09:45:23;;;;;;;4.05;0.98;;;;;;;14.42;100.00;100524.06;5009086;28;20037;-85
2023/10/05 09:47:51;;;;;;;5.00;0.85;;;;;;;14.46;100.00;100537.84;5003240;28;20394;-86
2023/10/05 09:50:21;;;;;;;7.13;1.00;;;;;;;14.48;100.00;100539.34;5008469;28;20033;-86
2023/10/05 09:52:48;;;;;;;6.40;0.63;;;;;;;14.51;100.00;100559.44;5023725;28;20065;-85
2023/10/05 09:55:19;;;;;;;2.55;0.70;;;;;;;14.55;100.00;100546.66;5009325;28;20059;-85
2023/10/05 09:57:46;;;;;;;4.78;0.60;;;;;;;14.57;100.00;100550.78;4991766;28;20041;-85
2023/10/05 10:00:47;;;;;;;3.50;1.20;;;;;;;14.61;100.00;100543.31;5015996;28;20040;-85
2023/10/05 10:03:17;;;;;;;3.70;0.88;;;;;;;14.60;100.00;100536.34;5005376;28;20484;-85
2023/10/05 10:05:49;;;;;;;5.75;1.45;;;;;;;14.62;100.00;100521.88;5026377;28;20140;-85
2023/10/05 10:08:21;;;;;;;4.10;0.68;;;;;;;14.64;100.00;100521.69;5030169;28;20033;-86
2023/10/05 10:11:09;;;;;;;2.00;0.60;;;;;;;14.68;100.00;100525.69;5024309;28;20512;-85
2023/10/05 10:13:38;;;;;;;3.35;0.73;;;;;;;14.67;100.00;100508.06;5023288;28;20029;-85
2023/10/05 10:16:23;;;;;;;5.20;0.65;;;;;;;14.75;100.00;100516.03;5025148;28;20064;-85
2023/10/05 10:18:53;;;;;;;3.17;0.60;;;;;;;14.74;100.00;100510.88;5005127;28;20049;-85
2023/10/05 10:21:24;;;;;;;4.68;0.57;;;;;;;14.72;100.00;100523.50;5002864;28;20037;-85
2023/10/05 10:24:00;;;;;;;4.68;0.70;;;;;;;14.74;100.00;100519.69;5024169;28;20115;-85
2023/10/05 10:26:26;;;;;;;3.47;0.68;;;;;;;14.71;100.00;100508.56;5023251;28;20064;-90
2023/10/05 10:31:42;;;;;;;3.28;0.60;;;;;;;14.70;100.00;100499.72;5012057;28;20464;-85
2023/10/05 10:34:30;;;;;;;2.78;0.68;;;;;;;14.75;100.00;100499.22;5005880;28;20040;-85
2023/10/05 10:36:56;;;;;;;1.48;0.63;;;;;;;14.69;100.00;100494.56;5009568;28;20091;-84
2023/10/05 10:39:24;;;;;;;3.00;0.57;;;;;;;14.75;100.00;100505.38;4988064;28;20044;-85
2023/10/05 10:42:00;;;;;;;4.38;0.90;;;;;;;14.80;100.00;100496.06;5012271;28;20025;-84
2023/10/05 10:44:26;;;;;;;3.58;0.60;;;;;;;14.80;100.00;100504.06;4950635;28;20529;-84
2023/10/05 10:47:08;;;;;;;3.65;0.65;;;;;;;14.91;100.00;100493.03;5005696;28;20044;-84
2023/10/05 10:49:39;;;;;;;5.78;0.80;;;;;;;14.94;100.00;100481.25;5022334;28;20033;-84
2023/10/05 10:52:09;;;;;;;2.65;0.70;;;;;;;15.05;100.00;100499.47;5020745;28;20504;-84
2023/10/05 10:54:42;;;;;;;4.45;0.57;;;;;;;15.14;100.00;100508.28;5022648;28;20140;-84
2023/10/05 10:57:09;;;;;;;4.00;0.50;;;;;;;15.18;100.00;100498.94;5027890;28;20037;-84
2023/10/05 10:59:41;;;;;;;2.70;0.47;;;;;;;15.19;100.00;100508.59;5017549;28;20029;-84
2023/10/05 11:02:14;;;;;;;3.53;0.50;;;;;;;15.21;100.00;100493.25;4983483;28;20048;-87
2023/10/05 11:04:40;;;;;;;2.50;0.55;;;;;;;15.27;100.00;100488.25;5020351;28;20041;-88
2023/10/05 11:07:05;;;;;;;4.72;0.68;;;;;;;15.40;100.00;100487.69;5028546;28;20041;-84
2023/10/05 11:09:48;;;;;;;1.70;0.40;;;;;;;15.55;100.00;100474.41;5008633;28;20068;-84
2023/10/05 11:12:21;;;;;;;3.58;0.52;;;;;;;15.66;100.00;100481.19;4995252;28;20033;-84
2023/10/05 11:14:47;;;;;;;0.82;0.20;;;;;;;15.68;100.00;100460.53;5011689;28;20037;-84
2023/10/05 11:17:30;;;;;;;0.98;0.30;;;;;;;15.70;100.00;100469.97;4993077;28;20052;-87
2023/10/05 11:20:12;;;;;;;1.50;0.28;;;;;;;15.67;100.00;100457.00;5013439;28;20397;-88
2023/10/05 11:22:42;;;;;;;1.88;0.50;;;;;;;15.68;100.00;100477.34;4999469;28;20385;-87
2023/10/05 11:25:23;;;;;;;1.65;0.40;;;;;;;15.72;100.00;100457.31;5007237;28;20065;-87
2023/10/05 11:27:56;;;;;;;2.83;0.40;;;;;;;15.77;100.00;100467.44;5023611;28;20132;-83
2023/10/05 11:30:26;;;;;;;0.80;0.30;;;;;;;15.83;100.00;100455.25;4998351;28;20033;-84
2023/10/05 11:32:56;;;;;;;1.75;0.43;;;;;;;15.85;100.00;100461.22;5000308;28;20034;-84
2023/10/05 11:35:28;;;;;;;3.38;0.30;;;;;;;15.90;100.00;100450.00;5024784;28;20040;-84
2023/10/05 11:38:04;;;;;;;0.77;0.28;;;;;;;15.96;100.00;100459.97;5025859;28;20127;-83
2023/10/05 11:40:41;;;;;;;;;;;;;;;15.92;100.00;100445.34;4999217;28;20425;-84
2023/10/05 11:43:13;;;;;;;1.13;0.30;;;;;;;15.93;100.00;100447.84;5012388;28;20322;-84
2023/10/05 11:46:00;;;;;;;3.20;0.40;;;;;;;16.07;100.00;100450.75;5012944;28;20048;-84
2023/10/05 11:48:40;;;;;;;0.93;0.32;;;;;;;16.06;100.00;100451.75;5010905;28;20042;-85
2023/10/05 11:51:10;;;;;;;0.77;0.20;;;;;;;16.02;100.00;100439.81;4992579;28;20030;-84
2023/10/05 11:53:37;;;;;;;1.08;0.30;;;;;;;16.03;100.00;100442.28;5019759;28;20025;-84
2023/10/05 11:56:04;;;;;;;3.03;0.65;;;;;;;15.97;100.00;100454.47;4987294;28;20049;-84
2023/10/05 11:58:36;;;;;;;1.08;0.30;;;;;;;16.02;100.00;100448.63;5023355;28;20045;-84
2023/10/05 12:01:03;;;;;;;1.55;0.32;;;;;;;15.93;100.00;100439.84;5029780;28;20030;-84